sensor_id;sensor_type;location;lat;lon;timestamp;pressure;altitude;pressure_sealevel;temperature;humidity
58761;BME280;44529;47.464;19.014;2022-07-29T00:02:46;100161.12;;;25.11;43.07
58761;BME280;44529;47.464;19.014;2022-07-29T00:05:48;100165.16;;;25.03;43.25
58761;BME280;44529;47.464;19.014;2022-07-29T00:08:51;100161.69;;;24.95;43.44
58761;BME280;44529;47.464;19.014;2022-07-29T00:11:53;100162.03;;;25.01;43.40
58761;BME280;44529;47.464;19.014;2022-07-29T00:14:57;100162.81;;;25.01;43.41
58761;BME280;44529;47.464;19.014;2022-07-29T00:17:59;100164.00;;;25.00;43.51
58761;BME280;44529;47.464;19.014;2022-07-29T00:21:01;100162.50;;;24.92;43.80
58761;BME280;44529;47.464;19.014;2022-07-29T00:24:04;100161.69;;;24.95;43.72
58761;BME280;44529;47.464;19.014;2022-07-29T00:27:06;100170.44;;;24.90;43.99
58761;BME280;44529;47.464;19.014;2022-07-29T00:30:09;100174.06;;;24.83;44.44
58761;BME280;44529;47.464;19.014;2022-07-29T00:33:11;100175.25;;;24.82;44.30
58761;BME280;44529;47.464;19.014;2022-07-29T00:36:14;100170.19;;;24.74;44.63
58761;BME280;44529;47.464;19.014;2022-07-29T00:39:16;100168.16;;;24.81;44.29
58761;BME280;44529;47.464;19.014;2022-07-29T00:42:18;100169.41;;;24.73;44.55
58761;BME280;44529;47.464;19.014;2022-07-29T00:45:20;100167.38;;;24.77;44.39
58761;BME280;44529;47.464;19.014;2022-07-29T00:48:24;100169.00;;;24.75;44.45
58761;BME280;44529;47.464;19.014;2022-07-29T00:51:27;100161.06;;;24.77;44.26
58761;BME280;44529;47.464;19.014;2022-07-29T00:54:29;100164.28;;;24.72;44.43
58761;BME280;44529;47.464;19.014;2022-07-29T00:57:32;100170.19;;;24.74;44.41
58761;BME280;44529;47.464;19.014;2022-07-29T01:00:35;100172.63;;;24.68;44.42
58761;BME280;44529;47.464;19.014;2022-07-29T01:03:38;100168.16;;;24.78;44.07
58761;BME280;44529;47.464;19.014;2022-07-29T01:06:42;100162.34;;;24.69;44.53
58761;BME280;44529;47.464;19.014;2022-07-29T01:09:45;100155.31;;;24.61;44.89
58761;BME280;44529;47.464;19.014;2022-07-29T01:12:50;100155.78;;;24.52;45.48
58761;BME280;44529;47.464;19.014;2022-07-29T01:15:59;100162.50;;;24.51;45.28
58761;BME280;44529;47.464;19.014;2022-07-29T01:22:47;100155.41;;;24.50;45.30
58761;BME280;44529;47.464;19.014;2022-07-29T01:32:15;100154.63;;;24.46;45.39
58761;BME280;44529;47.464;19.014;2022-07-29T01:35:40;100158.97;;;24.47;45.37
58761;BME280;44529;47.464;19.014;2022-07-29T01:38:47;100153.13;;;24.38;45.73
58761;BME280;44529;47.464;19.014;2022-07-29T01:42:20;100148.75;;;24.40;45.54
58761;BME280;44529;47.464;19.014;2022-07-29T01:45:30;100152.37;;;24.34;45.70
58761;BME280;44529;47.464;19.014;2022-07-29T01:48:43;100151.19;;;24.31;45.91
58761;BME280;44529;47.464;19.014;2022-07-29T01:52:08;100152.34;;;24.37;45.80
58761;BME280;44529;47.464;19.014;2022-07-29T01:55:15;100149.59;;;24.37;45.79
58761;BME280;44529;47.464;19.014;2022-07-29T01:58:19;100150.78;;;24.36;45.77
58761;BME280;44529;47.464;19.014;2022-07-29T02:01:24;100148.75;;;24.40;45.72
58761;BME280;44529;47.464;19.014;2022-07-29T02:04:28;100145.66;;;24.31;46.01
58761;BME280;44529;47.464;19.014;2022-07-29T02:07:32;100142.59;;;24.22;46.37
58761;BME280;44529;47.464;19.014;2022-07-29T02:10:37;100136.31;;;24.14;46.43
58761;BME280;44529;47.464;19.014;2022-07-29T02:13:42;100147.41;;;24.07;46.97
58761;BME280;44529;47.464;19.014;2022-07-29T02:16:48;100154.12;;;24.06;46.93
58761;BME280;44529;47.464;19.014;2022-07-29T02:19:55;100142.41;;;23.91;47.14
58761;BME280;44529;47.464;19.014;2022-07-29T02:22:59;100141.19;;;23.92;47.32
58761;BME280;44529;47.464;19.014;2022-07-29T02:26:02;100144.75;;;23.89;47.25
58761;BME280;44529;47.464;19.014;2022-07-29T02:29:06;100137.66;;;23.88;47.27
58761;BME280;44529;47.464;19.014;2022-07-29T02:32:10;100131.78;;;23.86;47.74
58761;BME280;44529;47.464;19.014;2022-07-29T02:35:15;100136.16;;;23.80;47.60
58761;BME280;44529;47.464;19.014;2022-07-29T02:38:20;100136.53;;;23.82;47.69
58761;BME280;44529;47.464;19.014;2022-07-29T02:41:50;100137.31;;;23.83;47.69
58761;BME280;44529;47.464;19.014;2022-07-29T02:44:53;100135.78;;;23.78;47.83
58761;BME280;44529;47.464;19.014;2022-07-29T02:47:57;100128.28;;;23.75;47.86
58761;BME280;44529;47.464;19.014;2022-07-29T02:51:06;100133.06;;;23.71;48.08
58761;BME280;44529;47.464;19.014;2022-07-29T02:54:24;100138.19;;;23.72;47.59
58761;BME280;44529;47.464;19.014;2022-07-29T02:57:39;100137.44;;;23.65;47.74
58761;BME280;44529;47.464;19.014;2022-07-29T03:00:59;100141.38;;;23.64;47.84
58761;BME280;44529;47.464;19.014;2022-07-29T03:04:04;100138.97;;;23.73;47.50
58761;BME280;44529;47.464;19.014;2022-07-29T03:07:08;100131.50;;;23.63;48.04
58761;BME280;44529;47.464;19.014;2022-07-29T03:10:12;100143.75;;;23.55;48.27
58761;BME280;44529;47.464;19.014;2022-07-29T03:13:15;100138.28;;;23.47;48.38
58761;BME280;44529;47.464;19.014;2022-07-29T03:16:19;100136.72;;;23.46;48.34
58761;BME280;44529;47.464;19.014;2022-07-29T03:19:22;100139.06;;;23.48;48.44
58761;BME280;44529;47.464;19.014;2022-07-29T03:22:25;100139.88;;;23.41;48.57
58761;BME280;44529;47.464;19.014;2022-07-29T03:25:28;100138.66;;;23.49;48.58
58761;BME280;44529;47.464;19.014;2022-07-29T03:28:30;100133.53;;;23.51;48.22
58761;BME280;44529;47.464;19.014;2022-07-29T03:31:32;100145.72;;;23.50;48.50
58761;BME280;44529;47.464;19.014;2022-07-29T03:34:36;100135.91;;;23.42;48.44
58761;BME280;44529;47.464;19.014;2022-07-29T03:37:39;100140.22;;;23.50;48.08
58761;BME280;44529;47.464;19.014;2022-07-29T03:41:04;100139.88;;;23.45;48.44
58761;BME280;44529;47.464;19.014;2022-07-29T03:44:07;100141.47;;;23.39;48.80
58761;BME280;44529;47.464;19.014;2022-07-29T03:47:11;100142.25;;;23.39;48.69
58761;BME280;44529;47.464;19.014;2022-07-29T03:50:15;100142.25;;;23.36;48.44
58761;BME280;44529;47.464;19.014;2022-07-29T03:53:18;100144.63;;;23.37;48.76
58761;BME280;44529;47.464;19.014;2022-07-29T03:56:22;100143.81;;;23.40;48.57
58761;BME280;44529;47.464;19.014;2022-07-29T03:59:25;100144.63;;;23.37;48.60
58761;BME280;44529;47.464;19.014;2022-07-29T04:02:29;100149.72;;;23.42;48.46
58761;BME280;44529;47.464;19.014;2022-07-29T04:05:32;100152.09;;;23.40;48.40
58761;BME280;44529;47.464;19.014;2022-07-29T04:08:34;100153.69;;;23.38;48.95
58761;BME280;44529;47.464;19.014;2022-07-29T04:11:40;100153.72;;;23.34;49.16
58761;BME280;44529;47.464;19.014;2022-07-29T04:15:04;100156.84;;;23.40;48.87
58761;BME280;44529;47.464;19.014;2022-07-29T04:18:06;100155.69;;;23.34;49.03
58761;BME280;44529;47.464;19.014;2022-07-29T04:21:09;100156.06;;;23.36;49.10
58761;BME280;44529;47.464;19.014;2022-07-29T04:24:11;100158.03;;;23.35;49.38
58761;BME280;44529;47.464;19.014;2022-07-29T04:27:14;100153.31;;;23.36;49.70
58761;BME280;44529;47.464;19.014;2022-07-29T04:30:18;100153.31;;;23.36;49.40
58761;BME280;44529;47.464;19.014;2022-07-29T04:33:20;100153.31;;;23.36;49.79
58761;BME280;44529;47.464;19.014;2022-07-29T04:36:26;100155.69;;;23.34;50.21
58761;BME280;44529;47.464;19.014;2022-07-29T04:39:30;100155.69;;;23.34;50.07
58761;BME280;44529;47.464;19.014;2022-07-29T04:42:33;100153.72;;;23.34;50.33
58761;BME280;44529;47.464;19.014;2022-07-29T04:45:45;100156.06;;;23.36;50.13
58761;BME280;44529;47.464;19.014;2022-07-29T04:48:48;100160.81;;;23.32;50.93
58761;BME280;44529;47.464;19.014;2022-07-29T04:51:50;100159.63;;;23.33;51.19
58761;BME280;44529;47.464;19.014;2022-07-29T04:54:53;100159.63;;;23.29;51.02
58761;BME280;44529;47.464;19.014;2022-07-29T04:57:55;100159.22;;;23.34;51.39
58761;BME280;44529;47.464;19.014;2022-07-29T05:00:58;100159.56;;;23.47;50.59
58761;BME280;44529;47.464;19.014;2022-07-29T05:04:00;100158.38;;;23.51;50.40
58761;BME280;44529;47.464;19.014;2022-07-29T05:07:02;100157.19;;;23.49;50.46
58761;BME280;44529;47.464;19.014;2022-07-29T05:10:05;100164.69;;;23.48;50.57
58761;BME280;44529;47.464;19.014;2022-07-29T05:13:07;100161.50;;;23.57;50.19
58761;BME280;44529;47.464;19.014;2022-07-29T05:16:10;100159.53;;;23.58;50.40
58761;BME280;44529;47.464;19.014;2022-07-29T05:19:12;100161.88;;;23.66;50.32
58761;BME280;44529;47.464;19.014;2022-07-29T05:22:15;100160.28;;;23.69;50.19
58761;BME280;44529;47.464;19.014;2022-07-29T05:25:18;100162.19;;;23.75;50.01
58761;BME280;44529;47.464;19.014;2022-07-29T05:28:20;100151.94;;;23.80;50.10
58761;BME280;44529;47.464;19.014;2022-07-29T05:31:22;100160.16;;;23.90;49.88
58761;BME280;44529;47.464;19.014;2022-07-29T05:34:24;100152.19;;;23.99;49.56
58761;BME280;44529;47.464;19.014;2022-07-29T05:37:27;100161.22;;;24.11;48.78
58761;BME280;44529;47.464;19.014;2022-07-29T05:40:29;100160.84;;;24.05;49.35
58761;BME280;44529;47.464;19.014;2022-07-29T05:43:32;100159.22;;;24.11;49.01
58761;BME280;44529;47.464;19.014;2022-07-29T05:46:34;100161.22;;;24.11;49.92
58761;BME280;44529;47.464;19.014;2022-07-29T05:49:37;100160.00;;;24.15;50.02
58761;BME280;44529;47.464;19.014;2022-07-29T05:52:39;100168.97;;;24.26;49.31
58761;BME280;44529;47.464;19.014;2022-07-29T05:55:42;100176.41;;;24.40;48.44
58761;BME280;44529;47.464;19.014;2022-07-29T05:58:44;100175.09;;;24.55;48.65
58761;BME280;44529;47.464;19.014;2022-07-29T06:01:47;100170.28;;;24.67;47.07
58761;BME280;44529;47.464;19.014;2022-07-29T06:04:49;100173.50;;;24.58;47.78
58761;BME280;44529;47.464;19.014;2022-07-29T06:07:51;100179.00;;;24.62;47.92
58761;BME280;44529;47.464;19.014;2022-07-29T06:10:54;100184.13;;;24.59;48.50
58761;BME280;44529;47.464;19.014;2022-07-29T06:13:56;100169.50;;;24.63;48.96
58761;BME280;44529;47.464;19.014;2022-07-29T06:16:58;100180.13;;;24.68;48.59
58761;BME280;44529;47.464;19.014;2022-07-29T06:20:01;100172.63;;;24.68;48.15
58761;BME280;44529;47.464;19.014;2022-07-29T06:23:04;100178.50;;;24.74;47.84
58761;BME280;44529;47.464;19.014;2022-07-29T06:26:06;100174.56;;;24.71;47.86
58761;BME280;44529;47.464;19.014;2022-07-29T06:29:10;100181.25;;;24.74;48.54
58761;BME280;44529;47.464;19.014;2022-07-29T06:32:12;100181.34;;;24.67;49.49
58761;BME280;44529;47.464;19.014;2022-07-29T06:35:17;100182.91;;;24.64;49.93
58761;BME280;44529;47.464;19.014;2022-07-29T06:38:39;100190.81;;;24.66;49.97
58761;BME280;44529;47.464;19.014;2022-07-29T06:41:49;100189.63;;;24.67;49.54
58761;BME280;44529;47.464;19.014;2022-07-29T06:44:52;100193.53;;;24.69;48.86
58761;BME280;44529;47.464;19.014;2022-07-29T06:47:54;100189.87;;;24.79;49.51
58761;BME280;44529;47.464;19.014;2022-07-29T06:50:57;100196.19;;;24.83;48.06
58761;BME280;44529;47.464;19.014;2022-07-29T06:53:59;100201.22;;;24.92;49.45
58761;BME280;44529;47.464;19.014;2022-07-29T06:57:14;100197.22;;;24.97;48.18
58761;BME280;44529;47.464;19.014;2022-07-29T07:00:17;100201.50;;;25.08;48.79
58761;BME280;44529;47.464;19.014;2022-07-29T07:03:19;100196.97;;;25.25;47.91
58761;BME280;44529;47.464;19.014;2022-07-29T07:06:21;100189.72;;;25.35;47.83
58761;BME280;44529;47.464;19.014;2022-07-29T07:09:24;100188.06;;;25.41;47.20
58761;BME280;44529;47.464;19.014;2022-07-29T07:12:41;100195.38;;;25.58;46.45
58761;BME280;44529;47.464;19.014;2022-07-29T07:15:44;100192.44;;;25.76;45.39
58761;BME280;44529;47.464;19.014;2022-07-29T07:18:47;100185.91;;;25.90;45.95
58761;BME280;44529;47.464;19.014;2022-07-29T07:21:49;100185.63;;;26.08;44.65
58761;BME280;44529;47.464;19.014;2022-07-29T07:24:52;100194.56;;;26.19;45.42
58761;BME280;44529;47.464;19.014;2022-07-29T07:27:54;100182.78;;;26.38;45.29
58761;BME280;44529;47.464;19.014;2022-07-29T07:30:56;100183.34;;;26.53;44.83
58761;BME280;44529;47.464;19.014;2022-07-29T07:33:59;100186.13;;;26.77;44.76
58761;BME280;44529;47.464;19.014;2022-07-29T07:37:01;100186.81;;;27.04;43.43
58761;BME280;44529;47.464;19.014;2022-07-29T07:40:04;100189.78;;;27.37;42.07
58761;BME280;44529;47.464;19.014;2022-07-29T07:43:07;100180.63;;;27.56;41.27
58761;BME280;44529;47.464;19.014;2022-07-29T07:46:09;100173.34;;;27.82;41.67
58761;BME280;44529;47.464;19.014;2022-07-29T07:49:11;100178.78;;;28.05;41.59
58761;BME280;44529;47.464;19.014;2022-07-29T07:52:15;100174.06;;;28.39;40.22
58761;BME280;44529;47.464;19.014;2022-07-29T07:55:18;100169.53;;;28.61;40.47
58761;BME280;44529;47.464;19.014;2022-07-29T07:58:20;100172.94;;;28.98;39.44
58761;BME280;44529;47.464;19.014;2022-07-29T08:01:23;100178.06;;;29.28;38.52
58761;BME280;44529;47.464;19.014;2022-07-29T08:04:26;100171.31;;;29.42;45.87
58761;BME280;44529;47.464;19.014;2022-07-29T08:07:30;100173.66;;;29.44;42.34
58761;BME280;44529;47.464;19.014;2022-07-29T08:10:33;100171.72;;;29.57;40.12
58761;BME280;44529;47.464;19.014;2022-07-29T08:13:54;100165.38;;;29.82;40.00
58761;BME280;44529;47.464;19.014;2022-07-29T08:16:56;100170.62;;;30.05;39.17
58761;BME280;44529;47.464;19.014;2022-07-29T08:19:59;100179.69;;;30.22;41.86
58761;BME280;44529;47.464;19.014;2022-07-29T08:23:05;100174.88;;;30.35;41.65
58761;BME280;44529;47.464;19.014;2022-07-29T08:26:08;100169.34;;;30.57;40.27
58761;BME280;44529;47.464;19.014;2022-07-29T08:29:14;100167.09;;;30.52;42.34
58761;BME280;44529;47.464;19.014;2022-07-29T08:32:20;100166.75;;;30.63;42.87
58761;BME280;44529;47.464;19.014;2022-07-29T08:35:43;100162.84;;;30.73;41.70
58761;BME280;44529;47.464;19.014;2022-07-29T08:38:45;100168.91;;;30.93;44.78
58761;BME280;44529;47.464;19.014;2022-07-29T08:41:48;100168.91;;;31.15;38.24
58761;BME280;44529;47.464;19.014;2022-07-29T08:44:58;100164.06;;;31.50;34.52
58761;BME280;44529;47.464;19.014;2022-07-29T08:48:01;100163.19;;;31.63;36.48
58761;BME280;44529;47.464;19.014;2022-07-29T08:51:03;100167.38;;;31.89;35.96
58761;BME280;44529;47.464;19.014;2022-07-29T08:54:08;100150.97;;;32.10;35.21
58761;BME280;44529;47.464;19.014;2022-07-29T08:57:14;100151.22;;;32.52;34.79
58761;BME280;44529;47.464;19.014;2022-07-29T09:00:19;100150.03;;;32.90;32.75
58761;BME280;44529;47.464;19.014;2022-07-29T09:03:24;100151.09;;;33.20;33.11
58761;BME280;44529;47.464;19.014;2022-07-29T09:06:31;100145.31;;;33.41;31.80
58761;BME280;44529;47.464;19.014;2022-07-29T09:09:35;100149.94;;;33.63;30.52
58761;BME280;44529;47.464;19.014;2022-07-29T09:12:37;100145.41;;;34.08;30.02
58761;BME280;44529;47.464;19.014;2022-07-29T09:15:40;100147.62;;;34.28;29.73
58761;BME280;44529;47.464;19.014;2022-07-29T09:18:44;100142.69;;;34.46;29.36
58761;BME280;44529;47.464;19.014;2022-07-29T09:21:46;100149.28;;;34.58;30.60
58761;BME280;44529;47.464;19.014;2022-07-29T09:25:01;100135.87;;;34.77;28.18
58761;BME280;44529;47.464;19.014;2022-07-29T09:28:14;100136.13;;;35.03;27.83
58761;BME280;44529;47.464;19.014;2022-07-29T09:31:16;100131.47;;;34.61;30.41
58761;BME280;44529;47.464;19.014;2022-07-29T09:34:24;100135.28;;;35.12;27.96
58761;BME280;44529;47.464;19.014;2022-07-29T09:37:28;100125.13;;;35.44;27.17
58761;BME280;44529;47.464;19.014;2022-07-29T09:40:31;100125.59;;;35.57;28.10
58761;BME280;44529;47.464;19.014;2022-07-29T09:43:34;100120.66;;;35.52;26.25
58761;BME280;44529;47.464;19.014;2022-07-29T09:46:36;100120.16;;;35.53;26.49
58761;BME280;44529;47.464;19.014;2022-07-29T09:49:56;100117.38;;;35.74;26.79
58761;BME280;44529;47.464;19.014;2022-07-29T09:53:00;100114.78;;;35.70;25.89
58761;BME280;44529;47.464;19.014;2022-07-29T09:56:03;100108.19;;;35.73;26.69
58761;BME280;44529;47.464;19.014;2022-07-29T09:59:07;100119.16;;;35.71;26.62
58761;BME280;44529;47.464;19.014;2022-07-29T10:02:13;100114.72;;;35.65;26.04
58761;BME280;44529;47.464;19.014;2022-07-29T10:05:26;100104.72;;;35.64;26.58
58761;BME280;44529;47.464;19.014;2022-07-29T10:08:37;100106.94;;;35.60;26.95
58761;BME280;44529;47.464;19.014;2022-07-29T10:11:40;100106.00;;;35.48;26.01
58761;BME280;44529;47.464;19.014;2022-07-29T10:14:50;100106.97;;;35.45;26.21
58761;BME280;44529;47.464;19.014;2022-07-29T10:17:54;100098.00;;;35.61;25.43
58761;BME280;44529;47.464;19.014;2022-07-29T10:20:57;100098.59;;;35.65;25.17
58761;BME280;44529;47.464;19.014;2022-07-29T10:24:00;100100.72;;;35.70;24.90
58761;BME280;44529;47.464;19.014;2022-07-29T10:27:04;100093.34;;;35.73;24.83
58761;BME280;44529;47.464;19.014;2022-07-29T10:30:07;100090.25;;;35.71;25.48
58761;BME280;44529;47.464;19.014;2022-07-29T10:42:52;100070.78;;;35.38;24.63
58761;BME280;44529;47.464;19.014;2022-07-29T10:45:57;100062.06;;;35.21;25.87
58761;BME280;44529;47.464;19.014;2022-07-29T10:49:14;100061.03;;;35.18;25.43
58761;BME280;44529;47.464;19.014;2022-07-29T10:52:18;100078.44;;;35.52;24.23
58761;BME280;44529;47.464;19.014;2022-07-29T10:55:34;100076.50;;;35.28;25.80
58761;BME280;44529;47.464;19.014;2022-07-29T10:58:38;100066.00;;;34.55;25.53
58761;BME280;44529;47.464;19.014;2022-07-29T11:01:42;100064.25;;;33.95;26.64
58761;BME280;44529;47.464;19.014;2022-07-29T11:14:56;100049.78;;;34.11;25.93
58761;BME280;44529;47.464;19.014;2022-07-29T11:21:03;100041.09;;;34.24;24.15
58761;BME280;44529;47.464;19.014;2022-07-29T11:24:14;100037.31;;;34.51;24.80
58761;BME280;44529;47.464;19.014;2022-07-29T11:27:32;100038.13;;;34.81;24.76
58761;BME280;44529;47.464;19.014;2022-07-29T11:30:49;100033.06;;;34.70;24.29
58761;BME280;44529;47.464;19.014;2022-07-29T11:33:52;100031.53;;;34.69;24.73
58761;BME280;44529;47.464;19.014;2022-07-29T11:37:16;100024.75;;;34.61;24.27
58761;BME280;44529;47.464;19.014;2022-07-29T11:40:21;100014.59;;;34.79;24.33
58761;BME280;44529;47.464;19.014;2022-07-29T11:43:46;100013.44;;;34.85;24.30
58761;BME280;44529;47.464;19.014;2022-07-29T11:46:52;100011.19;;;34.89;24.69
58761;BME280;44529;47.464;19.014;2022-07-29T11:49:56;100003.25;;;34.88;24.15
58761;BME280;44529;47.464;19.014;2022-07-29T11:53:10;100007.59;;;34.89;24.28
58761;BME280;44529;47.464;19.014;2022-07-29T11:56:19;100005.41;;;34.78;24.12
58761;BME280;44529;47.464;19.014;2022-07-29T11:59:27;100006.84;;;34.59;24.46
58761;BME280;44529;47.464;19.014;2022-07-29T12:02:40;100009.06;;;34.69;24.22
58761;BME280;44529;47.464;19.014;2022-07-29T12:05:44;100003.22;;;34.58;24.21
58761;BME280;44529;47.464;19.014;2022-07-29T12:08:52;100004.50;;;34.18;24.81
58761;BME280;44529;47.464;19.014;2022-07-29T12:11:58;100003.03;;;34.08;25.79
58761;BME280;44529;47.464;19.014;2022-07-29T12:15:17;100002.50;;;33.95;25.13
58761;BME280;44529;47.464;19.014;2022-07-29T12:18:24;99994.13;;;34.10;25.25
58761;BME280;44529;47.464;19.014;2022-07-29T12:21:27;99994.53;;;34.17;25.82
58761;BME280;44529;47.464;19.014;2022-07-29T12:24:43;99997.81;;;34.16;25.00
58761;BME280;44529;47.464;19.014;2022-07-29T12:27:46;99996.00;;;34.28;24.89
58761;BME280;44529;47.464;19.014;2022-07-29T12:30:50;99986.88;;;34.42;24.42
58761;BME280;44529;47.464;19.014;2022-07-29T12:33:53;99990.84;;;34.50;24.41
58761;BME280;44529;47.464;19.014;2022-07-29T12:36:56;99973.19;;;34.35;23.94
58761;BME280;44529;47.464;19.014;2022-07-29T12:39:58;99968.13;;;34.39;24.17
58761;BME280;44529;47.464;19.014;2022-07-29T12:46:13;99954.28;;;34.35;24.66
58761;BME280;44529;47.464;19.014;2022-07-29T12:49:22;99942.13;;;34.53;24.76
58761;BME280;44529;47.464;19.014;2022-07-29T12:52:30;99951.50;;;34.35;25.23
58761;BME280;44529;47.464;19.014;2022-07-29T12:58:45;99944.47;;;34.01;25.53
58761;BME280;44529;47.464;19.014;2022-07-29T13:01:52;99942.56;;;34.22;25.36
58761;BME280;44529;47.464;19.014;2022-07-29T13:04:56;99945.88;;;34.20;25.34
58761;BME280;44529;47.464;19.014;2022-07-29T13:08:10;99943.13;;;34.11;25.77
58761;BME280;44529;47.464;19.014;2022-07-29T13:11:33;99943.72;;;34.15;25.49
58761;BME280;44529;47.464;19.014;2022-07-29T13:14:46;99939.00;;;34.21;24.72
58761;BME280;44529;47.464;19.014;2022-07-29T13:17:49;99934.31;;;34.18;24.97
58761;BME280;44529;47.464;19.014;2022-07-29T13:20:51;99931.75;;;33.91;26.38
58761;BME280;44529;47.464;19.014;2022-07-29T13:23:54;99919.06;;;33.57;25.56
58761;BME280;44529;47.464;19.014;2022-07-29T13:26:56;99916.78;;;33.70;24.72
58761;BME280;44529;47.464;19.014;2022-07-29T13:30:00;99914.09;;;33.76;24.76
58761;BME280;44529;47.464;19.014;2022-07-29T13:33:03;99907.16;;;33.86;25.42
58761;BME280;44529;47.464;19.014;2022-07-29T13:36:05;99913.41;;;33.81;25.16
58761;BME280;44529;47.464;19.014;2022-07-29T13:39:07;99912.84;;;33.53;25.08
58761;BME280;44529;47.464;19.014;2022-07-29T13:42:10;99908.25;;;33.40;25.68
58761;BME280;44529;47.464;19.014;2022-07-29T13:45:15;99893.87;;;33.24;26.17
58761;BME280;44529;47.464;19.014;2022-07-29T13:48:17;99894.81;;;33.21;26.27
58761;BME280;44529;47.464;19.014;2022-07-29T13:51:20;99904.81;;;33.12;26.67
58761;BME280;44529;47.464;19.014;2022-07-29T13:54:22;99888.66;;;33.07;25.79
58761;BME280;44529;47.464;19.014;2022-07-29T13:57:24;99894.28;;;33.31;25.95
58761;BME280;44529;47.464;19.014;2022-07-29T14:00:26;99891.19;;;33.53;25.87
58761;BME280;44529;47.464;19.014;2022-07-29T14:03:29;99892.16;;;33.50;25.79
58761;BME280;44529;47.464;19.014;2022-07-29T14:06:31;99886.69;;;33.56;25.65
58761;BME280;44529;47.464;19.014;2022-07-29T14:09:34;99880.31;;;33.70;25.21
58761;BME280;44529;47.464;19.014;2022-07-29T14:12:42;99877.44;;;33.79;25.04
58761;BME280;44529;47.464;19.014;2022-07-29T14:15:45;99882.09;;;33.82;25.10
58761;BME280;44529;47.464;19.014;2022-07-29T14:18:47;99870.97;;;33.88;24.62
58761;BME280;44529;47.464;19.014;2022-07-29T14:21:49;99868.91;;;33.74;25.06
58761;BME280;44529;47.464;19.014;2022-07-29T14:24:52;99878.44;;;33.52;26.00
58761;BME280;44529;47.464;19.014;2022-07-29T14:27:54;99876.72;;;33.22;26.01
58761;BME280;44529;47.464;19.014;2022-07-29T14:30:59;99877.31;;;33.02;26.54
58761;BME280;44529;47.464;19.014;2022-07-29T14:34:01;99870.06;;;32.86;26.71
58761;BME280;44529;47.464;19.014;2022-07-29T14:37:05;99867.16;;;32.71;27.26
58761;BME280;44529;47.464;19.014;2022-07-29T14:40:09;99860.47;;;32.69;27.25
58761;BME280;44529;47.464;19.014;2022-07-29T14:43:13;99855.72;;;32.84;26.67
58761;BME280;44529;47.464;19.014;2022-07-29T14:46:15;99842.31;;;32.97;26.84
58761;BME280;44529;47.464;19.014;2022-07-29T14:49:18;99849.25;;;33.11;26.48
58761;BME280;44529;47.464;19.014;2022-07-29T14:52:20;99848.41;;;33.20;26.07
58761;BME280;44529;47.464;19.014;2022-07-29T14:55:22;99847.44;;;33.23;25.87
58761;BME280;44529;47.464;19.014;2022-07-29T14:58:25;99840.00;;;33.20;25.36
58761;BME280;44529;47.464;19.014;2022-07-29T15:01:27;99840.91;;;33.26;25.47
58761;BME280;44529;47.464;19.014;2022-07-29T15:04:30;99819.84;;;33.30;25.55
58761;BME280;44529;47.464;19.014;2022-07-29T15:07:32;99820.44;;;33.34;25.37
58761;BME280;44529;47.464;19.014;2022-07-29T15:10:34;99819.66;;;33.34;25.54
58761;BME280;44529;47.464;19.014;2022-07-29T15:13:37;99820.75;;;33.12;25.63
58761;BME280;44529;47.464;19.014;2022-07-29T15:16:39;99823.97;;;32.96;26.12
58761;BME280;44529;47.464;19.014;2022-07-29T15:19:47;99823.59;;;33.03;25.67
58761;BME280;44529;47.464;19.014;2022-07-29T15:22:50;99819.56;;;33.04;25.80
58761;BME280;44529;47.464;19.014;2022-07-29T15:25:52;99818.44;;;33.11;25.91
58761;BME280;44529;47.464;19.014;2022-07-29T15:28:55;99812.47;;;33.18;25.63
58761;BME280;44529;47.464;19.014;2022-07-29T15:32:04;99801.84;;;33.22;26.24
58761;BME280;44529;47.464;19.014;2022-07-29T15:35:07;99801.94;;;33.28;26.12
58761;BME280;44529;47.464;19.014;2022-07-29T15:38:09;99812.34;;;33.12;26.18
58761;BME280;44529;47.464;19.014;2022-07-29T15:41:14;99797.06;;;33.13;25.88
58761;BME280;44529;47.464;19.014;2022-07-29T15:44:17;99798.13;;;33.16;26.14
58761;BME280;44529;47.464;19.014;2022-07-29T15:47:19;99789.28;;;33.18;25.80
58761;BME280;44529;47.464;19.014;2022-07-29T15:50:21;99792.28;;;33.29;25.62
58761;BME280;44529;47.464;19.014;2022-07-29T15:53:24;99794.16;;;33.32;25.44
58761;BME280;44529;47.464;19.014;2022-07-29T15:56:26;99792.59;;;33.31;25.58
58761;BME280;44529;47.464;19.014;2022-07-29T15:59:29;99779.47;;;33.37;25.70
58761;BME280;44529;47.464;19.014;2022-07-29T16:02:31;99782.38;;;33.42;25.61
58761;BME280;44529;47.464;19.014;2022-07-29T16:05:33;99784.72;;;33.44;25.68
58761;BME280;44529;47.464;19.014;2022-07-29T16:08:38;99783.38;;;33.39;25.54
58761;BME280;44529;47.464;19.014;2022-07-29T16:11:41;99789.97;;;33.27;26.03
58761;BME280;44529;47.464;19.014;2022-07-29T16:14:43;99783.34;;;33.15;25.96
58761;BME280;44529;47.464;19.014;2022-07-29T16:17:46;99790.22;;;33.14;25.47
58761;BME280;44529;47.464;19.014;2022-07-29T16:20:48;99789.94;;;33.12;25.76
58761;BME280;44529;47.464;19.014;2022-07-29T16:23:51;99782.53;;;33.00;25.44
58761;BME280;44529;47.464;19.014;2022-07-29T16:26:54;99776.81;;;32.95;26.10
58761;BME280;44529;47.464;19.014;2022-07-29T16:29:57;99774.00;;;32.95;25.54
58761;BME280;44529;47.464;19.014;2022-07-29T16:33:02;99779.63;;;32.95;25.99
58761;BME280;44529;47.464;19.014;2022-07-29T16:36:09;99781.03;;;32.90;26.28
58761;BME280;44529;47.464;19.014;2022-07-29T16:39:14;99776.41;;;32.87;25.78